sensor_id;sensor_type;location;lat;lon;timestamp;pressure;altitude;pressure_sealevel;temperature;humidity
42385;BME280;28042;43.986;22.860;2023-02-18T00:00:04;101845.88;;;5.90;66.54
42385;BME280;28042;43.986;22.860;2023-02-18T00:02:30;101845.19;;;5.88;66.71
42385;BME280;28042;43.986;22.860;2023-02-18T00:04:56;101846.78;;;5.90;66.91
42385;BME280;28042;43.986;22.860;2023-02-18T00:07:21;101850.44;;;5.89;67.53
42385;BME280;28042;43.986;22.860;2023-02-18T00:09:46;101849.47;;;5.90;67.85
42385;BME280;28042;43.986;22.860;2023-02-18T00:12:12;101849.59;;;5.89;68.04
42385;BME280;28042;43.986;22.860;2023-02-18T00:14:37;101853.44;;;5.86;67.94
42385;BME280;28042;43.986;22.860;2023-02-18T00:17:02;101852.72;;;5.84;68.02
42385;BME280;28042;43.986;22.860;2023-02-18T00:19:28;101842.75;;;5.75;68.09
42385;BME280;28042;43.986;22.860;2023-02-18T00:21:53;101840.28;;;5.72;68.04
42385;BME280;28042;43.986;22.860;2023-02-18T00:24:18;101843.28;;;5.69;68.16
42385;BME280;28042;43.986;22.860;2023-02-18T00:26:44;101839.28;;;5.73;67.81
42385;BME280;28042;43.986;22.860;2023-02-18T00:29:09;101841.88;;;5.75;68.11
42385;BME280;28042;43.986;22.860;2023-02-18T00:31:35;101834.75;;;5.74;67.84
42385;BME280;28042;43.986;22.860;2023-02-18T00:34:01;101833.88;;;5.73;67.89
42385;BME280;28042;43.986;22.860;2023-02-18T00:36:27;101836.31;;;5.76;67.79
42385;BME280;28042;43.986;22.860;2023-02-18T00:38:54;101827.91;;;5.79;67.55
42385;BME280;28042;43.986;22.860;2023-02-18T00:41:20;101832.31;;;5.71;68.31
42385;BME280;28042;43.986;22.860;2023-02-18T00:43:46;101829.00;;;5.57;68.44
42385;BME280;28042;43.986;22.860;2023-02-18T00:46:11;101823.72;;;5.56;68.96
42385;BME280;28042;43.986;22.860;2023-02-18T00:48:37;101822.44;;;5.60;68.99
42385;BME280;28042;43.986;22.860;2023-02-18T00:51:03;101818.47;;;5.64;68.58
42385;BME280;28042;43.986;22.860;2023-02-18T00:53:28;101813.78;;;5.66;68.74
42385;BME280;28042;43.986;22.860;2023-02-18T00:55:54;101816.53;;;5.76;68.33
42385;BME280;28042;43.986;22.860;2023-02-18T00:58:19;101816.09;;;5.80;68.36
42385;BME280;28042;43.986;22.860;2023-02-18T01:00:44;101811.66;;;5.79;68.80
42385;BME280;28042;43.986;22.860;2023-02-18T01:03:10;101817.09;;;5.79;68.70
42385;BME280;28042;43.986;22.860;2023-02-18T01:05:36;101808.31;;;5.97;67.68
42385;BME280;28042;43.986;22.860;2023-02-18T01:08:02;101804.34;;;6.20;66.58
42385;BME280;28042;43.986;22.860;2023-02-18T01:10:27;101802.06;;;6.44;65.49
42385;BME280;28042;43.986;22.860;2023-02-18T01:12:53;101802.06;;;6.54;64.54
42385;BME280;28042;43.986;22.860;2023-02-18T01:15:18;101789.75;;;6.79;63.58
42385;BME280;28042;43.986;22.860;2023-02-18T01:17:44;101794.78;;;7.01;62.16
42385;BME280;28042;43.986;22.860;2023-02-18T01:20:10;101791.63;;;7.16;61.35
42385;BME280;28042;43.986;22.860;2023-02-18T01:22:36;101789.59;;;7.18;61.21
42385;BME280;28042;43.986;22.860;2023-02-18T01:25:02;101781.56;;;7.26;60.79
42385;BME280;28042;43.986;22.860;2023-02-18T01:27:27;101781.78;;;7.42;60.24
42385;BME280;28042;43.986;22.860;2023-02-18T01:29:53;101784.00;;;7.56;59.21
42385;BME280;28042;43.986;22.860;2023-02-18T01:32:18;101771.31;;;7.75;58.64
42385;BME280;28042;43.986;22.860;2023-02-18T01:34:44;101772.19;;;7.93;57.77
42385;BME280;28042;43.986;22.860;2023-02-18T01:37:09;101763.63;;;7.88;57.82
42385;BME280;28042;43.986;22.860;2023-02-18T01:39:34;101758.69;;;8.01;56.73
42385;BME280;28042;43.986;22.860;2023-02-18T01:41:59;101765.91;;;8.10;56.64
42385;BME280;28042;43.986;22.860;2023-02-18T01:44:26;101760.75;;;8.07;56.49
42385;BME280;28042;43.986;22.860;2023-02-18T01:46:51;101766.19;;;8.07;56.92
42385;BME280;28042;43.986;22.860;2023-02-18T01:49:23;101754.69;;;8.13;55.78
42385;BME280;28042;43.986;22.860;2023-02-18T01:52:06;101753.00;;;8.12;55.73
42385;BME280;28042;43.986;22.860;2023-02-18T01:54:39;101754.69;;;8.13;55.69
42385;BME280;28042;43.986;22.860;2023-02-18T01:57:09;101750.81;;;8.16;56.14
42385;BME280;28042;43.986;22.860;2023-02-18T01:59:37;101751.81;;;8.15;55.28
42385;BME280;28042;43.986;22.860;2023-02-18T02:02:03;101758.09;;;8.33;54.36
42385;BME280;28042;43.986;22.860;2023-02-18T02:04:28;101743.44;;;8.44;54.41
42385;BME280;28042;43.986;22.860;2023-02-18T02:06:54;101752.75;;;8.41;54.85
42385;BME280;28042;43.986;22.860;2023-02-18T02:09:20;101753.75;;;8.58;53.58
42385;BME280;28042;43.986;22.860;2023-02-18T02:14:34;101754.53;;;8.33;54.54
42385;BME280;28042;43.986;22.860;2023-02-18T02:22:39;101765.56;;;8.13;54.65
42385;BME280;28042;43.986;22.860;2023-02-18T02:37:49;101760.47;;;8.10;55.20
42385;BME280;28042;43.986;22.860;2023-02-18T02:48:09;101742.97;;;8.13;55.57
42385;BME280;28042;43.986;22.860;2023-02-18T02:53:13;101746.38;;;8.15;55.40
42385;BME280;28042;43.986;22.860;2023-02-18T02:55:41;101754.16;;;8.28;54.81
42385;BME280;28042;43.986;22.860;2023-02-18T02:58:08;101754.63;;;8.41;54.17
42385;BME280;28042;43.986;22.860;2023-02-18T03:10:50;101753.13;;;9.24;51.12
42385;BME280;28042;43.986;22.860;2023-02-18T03:13:31;101749.53;;;9.24;51.02
42385;BME280;28042;43.986;22.860;2023-02-18T03:16:12;101737.81;;;9.23;51.18
42385;BME280;28042;43.986;22.860;2023-02-18T03:18:42;101732.66;;;9.20;51.16
42385;BME280;28042;43.986;22.860;2023-02-18T03:21:11;101724.34;;;9.22;51.22
42385;BME280;28042;43.986;22.860;2023-02-18T03:23:43;101719.81;;;9.30;50.81
42385;BME280;28042;43.986;22.860;2023-02-18T03:26:11;101716.22;;;9.38;50.32
42385;BME280;28042;43.986;22.860;2023-02-18T03:28:37;101724.78;;;9.51;49.77
42385;BME280;28042;43.986;22.860;2023-02-18T03:31:07;101719.53;;;9.58;50.13
42385;BME280;28042;43.986;22.860;2023-02-18T03:33:36;101721.59;;;9.72;48.97
42385;BME280;28042;43.986;22.860;2023-02-18T03:36:03;101725.06;;;9.82;48.86
42385;BME280;28042;43.986;22.860;2023-02-18T03:38:39;101726.41;;;9.86;48.90
42385;BME280;28042;43.986;22.860;2023-02-18T03:41:06;101723.31;;;9.81;49.43
42385;BME280;28042;43.986;22.860;2023-02-18T03:43:32;101715.47;;;9.78;49.45
42385;BME280;28042;43.986;22.860;2023-02-18T03:45:58;101716.69;;;9.84;49.65
42385;BME280;28042;43.986;22.860;2023-02-18T03:48:23;101709.38;;;9.84;49.21
42385;BME280;28042;43.986;22.860;2023-02-18T03:50:49;101718.88;;;9.80;49.89
42385;BME280;28042;43.986;22.860;2023-02-18T03:53:14;101720.75;;;9.80;50.19
42385;BME280;28042;43.986;22.860;2023-02-18T03:55:39;101716.69;;;9.76;49.86
42385;BME280;28042;43.986;22.860;2023-02-18T03:58:05;101732.50;;;9.72;50.40
42385;BME280;28042;43.986;22.860;2023-02-18T04:00:30;101723.13;;;9.67;50.74
42385;BME280;28042;43.986;22.860;2023-02-18T04:02:56;101712.75;;;9.70;50.37
42385;BME280;28042;43.986;22.860;2023-02-18T04:05:21;101710.53;;;9.66;50.48
42385;BME280;28042;43.986;22.860;2023-02-18T04:07:46;101702.50;;;9.64;50.69
42385;BME280;28042;43.986;22.860;2023-02-18T04:10:11;101691.78;;;9.62;50.62
42385;BME280;28042;43.986;22.860;2023-02-18T04:12:37;101690.44;;;9.58;50.77
42385;BME280;28042;43.986;22.860;2023-02-18T04:15:02;101691.28;;;9.59;51.15
42385;BME280;28042;43.986;22.860;2023-02-18T04:17:28;101693.34;;;9.65;50.54
42385;BME280;28042;43.986;22.860;2023-02-18T04:19:53;101694.69;;;9.69;50.63
42385;BME280;28042;43.986;22.860;2023-02-18T04:22:19;101699.81;;;9.72;50.67
42385;BME280;28042;43.986;22.860;2023-02-18T04:24:44;101697.09;;;9.88;49.68
42385;BME280;28042;43.986;22.860;2023-02-18T04:27:09;101696.25;;;9.96;49.58
42385;BME280;28042;43.986;22.860;2023-02-18T04:29:35;101710.06;;;10.11;48.72
42385;BME280;28042;43.986;22.860;2023-02-18T04:32:00;101698.16;;;10.36;47.72
42385;BME280;28042;43.986;22.860;2023-02-18T04:34:25;101697.31;;;10.44;47.00
42385;BME280;28042;43.986;22.860;2023-02-18T04:36:51;101699.19;;;10.52;47.36
42385;BME280;28042;43.986;22.860;2023-02-18T04:39:16;101695.56;;;10.51;47.29
42385;BME280;28042;43.986;22.860;2023-02-18T04:41:41;101672.22;;;10.57;46.75
42385;BME280;28042;43.986;22.860;2023-02-18T04:44:06;101671.72;;;10.61;46.69
42385;BME280;28042;43.986;22.860;2023-02-18T04:46:32;101668.81;;;10.55;46.79
42385;BME280;28042;43.986;22.860;2023-02-18T04:48:57;101654.63;;;10.59;47.11
42385;BME280;28042;43.986;22.860;2023-02-18T04:51:22;101667.94;;;10.70;46.93
42385;BME280;28042;43.986;22.860;2023-02-18T04:53:48;101653.44;;;10.70;47.33
42385;BME280;28042;43.986;22.860;2023-02-18T04:56:13;101656.50;;;10.67;47.07
42385;BME280;28042;43.986;22.860;2023-02-18T04:58:38;101678.31;;;10.75;47.21
42385;BME280;28042;43.986;22.860;2023-02-18T05:01:04;101679.66;;;10.87;46.45
42385;BME280;28042;43.986;22.860;2023-02-18T05:03:29;101684.06;;;10.88;46.59
42385;BME280;28042;43.986;22.860;2023-02-18T05:05:55;101688.00;;;10.86;46.53
42385;BME280;28042;43.986;22.860;2023-02-18T05:08:20;101689.56;;;10.80;46.96
42385;BME280;28042;43.986;22.860;2023-02-18T05:10:46;101696.06;;;10.79;46.65
42385;BME280;28042;43.986;22.860;2023-02-18T05:13:11;101697.06;;;10.78;46.64
42385;BME280;28042;43.986;22.860;2023-02-18T05:15:36;101685.84;;;10.65;46.78
42385;BME280;28042;43.986;22.860;2023-02-18T05:18:02;101693.38;;;10.55;46.20
42385;BME280;28042;43.986;22.860;2023-02-18T05:20:27;101686.03;;;10.55;46.34
42385;BME280;28042;43.986;22.860;2023-02-18T05:22:52;101688.28;;;10.52;46.80
42385;BME280;28042;43.986;22.860;2023-02-18T05:25:18;101686.88;;;10.56;46.09
42385;BME280;28042;43.986;22.860;2023-02-18T05:27:43;101674.63;;;10.52;46.88
42385;BME280;28042;43.986;22.860;2023-02-18T05:30:08;101683.13;;;10.48;46.83
42385;BME280;28042;43.986;22.860;2023-02-18T05:32:34;101691.00;;;10.52;46.22
42385;BME280;28042;43.986;22.860;2023-02-18T05:34:59;101690.47;;;10.48;46.56
42385;BME280;28042;43.986;22.860;2023-02-18T05:37:24;101696.09;;;10.46;46.73
42385;BME280;28042;43.986;22.860;2023-02-18T05:39:50;101687.56;;;10.50;46.83
42385;BME280;28042;43.986;22.860;2023-02-18T05:42:15;101694.88;;;10.57;46.78
42385;BME280;28042;43.986;22.860;2023-02-18T05:44:40;101695.06;;;10.64;46.29
42385;BME280;28042;43.986;22.860;2023-02-18T05:47:07;101700.50;;;10.64;46.62
42385;BME280;28042;43.986;22.860;2023-02-18T05:49:33;101702.56;;;10.62;46.44
42385;BME280;28042;43.986;22.860;2023-02-18T05:51:58;101689.44;;;10.57;46.83
42385;BME280;28042;43.986;22.860;2023-02-18T05:54:24;101688.94;;;10.54;46.49
42385;BME280;28042;43.986;22.860;2023-02-18T05:56:49;101686.91;;;10.47;46.86
42385;BME280;28042;43.986;22.860;2023-02-18T05:59:15;101694.06;;;10.40;47.05
42385;BME280;28042;43.986;22.860;2023-02-18T06:01:40;101689.47;;;10.41;47.02
42385;BME280;28042;43.986;22.860;2023-02-18T06:04:06;101688.22;;;10.60;45.88
42385;BME280;28042;43.986;22.860;2023-02-18T06:06:32;101686.66;;;10.82;45.11
42385;BME280;28042;43.986;22.860;2023-02-18T06:08:57;101678.97;;;10.77;45.53
42385;BME280;28042;43.986;22.860;2023-02-18T06:11:22;101692.59;;;10.85;44.92
42385;BME280;28042;43.986;22.860;2023-02-18T06:13:47;101683.03;;;10.89;45.15
42385;BME280;28042;43.986;22.860;2023-02-18T06:16:13;101684.28;;;11.18;44.07
42385;BME280;28042;43.986;22.860;2023-02-18T06:18:38;101688.31;;;11.38;43.79
42385;BME280;28042;43.986;22.860;2023-02-18T06:21:04;101697.78;;;11.50;43.72
42385;BME280;28042;43.986;22.860;2023-02-18T06:23:29;101708.63;;;11.67;43.40
42385;BME280;28042;43.986;22.860;2023-02-18T06:25:54;101697.69;;;11.67;43.70
42385;BME280;28042;43.986;22.860;2023-02-18T06:28:20;101702.84;;;11.61;43.84
42385;BME280;28042;43.986;22.860;2023-02-18T06:30:45;101702.50;;;11.65;43.91
42385;BME280;28042;43.986;22.860;2023-02-18T06:33:11;101702.59;;;11.71;43.82
42385;BME280;28042;43.986;22.860;2023-02-18T06:35:36;101700.06;;;11.70;43.77
42385;BME280;28042;43.986;22.860;2023-02-18T06:38:02;101707.59;;;11.68;43.95
42385;BME280;28042;43.986;22.860;2023-02-18T06:40:27;101693.56;;;11.71;43.83
42385;BME280;28042;43.986;22.860;2023-02-18T06:42:53;101690.47;;;11.82;43.88
42385;BME280;28042;43.986;22.860;2023-02-18T06:45:18;101696.59;;;11.84;43.77
42385;BME280;28042;43.986;22.860;2023-02-18T06:47:43;101691.78;;;11.86;43.88
42385;BME280;28042;43.986;22.860;2023-02-18T06:50:09;101688.56;;;11.82;44.32
42385;BME280;28042;43.986;22.860;2023-02-18T06:52:34;101695.56;;;11.85;44.42
42385;BME280;28042;43.986;22.860;2023-02-18T06:55:02;101693.88;;;11.76;44.70
42385;BME280;28042;43.986;22.860;2023-02-18T06:57:28;101689.75;;;11.80;44.43
42385;BME280;28042;43.986;22.860;2023-02-18T06:59:53;101695.19;;;11.88;44.30
42385;BME280;28042;43.986;22.860;2023-02-18T07:02:18;101702.84;;;11.93;44.29
42385;BME280;28042;43.986;22.860;2023-02-18T07:04:43;101700.78;;;11.95;44.29
42385;BME280;28042;43.986;22.860;2023-02-18T07:07:10;101705.41;;;11.94;44.28
42385;BME280;28042;43.986;22.860;2023-02-18T07:09:35;101709.63;;;11.97;44.38
42385;BME280;28042;43.986;22.860;2023-02-18T07:12:01;101719.38;;;11.99;44.38
42385;BME280;28042;43.986;22.860;2023-02-18T07:14:26;101713.66;;;11.86;44.61
42385;BME280;28042;43.986;22.860;2023-02-18T07:16:52;101713.28;;;11.89;44.59
42385;BME280;28042;43.986;22.860;2023-02-18T07:19:17;101722.47;;;11.96;44.40
42385;BME280;28042;43.986;22.860;2023-02-18T07:21:43;101721.38;;;12.05;43.98
42385;BME280;28042;43.986;22.860;2023-02-18T07:24:08;101724.03;;;12.13;43.86
42385;BME280;28042;43.986;22.860;2023-02-18T07:26:33;101726.91;;;12.20;43.37
42385;BME280;28042;43.986;22.860;2023-02-18T07:28:59;101726.66;;;12.30;43.06
42385;BME280;28042;43.986;22.860;2023-02-18T07:31:24;101717.06;;;12.34;42.63
42385;BME280;28042;43.986;22.860;2023-02-18T07:33:50;101725.16;;;12.42;43.10
42385;BME280;28042;43.986;22.860;2023-02-18T07:36:15;101735.38;;;12.48;42.45
42385;BME280;28042;43.986;22.860;2023-02-18T07:38:40;101730.56;;;12.50;42.40
42385;BME280;28042;43.986;22.860;2023-02-18T07:41:06;101743.13;;;12.59;42.05
42385;BME280;28042;43.986;22.860;2023-02-18T07:43:31;101733.53;;;12.63;42.46
42385;BME280;28042;43.986;22.860;2023-02-18T07:45:56;101732.69;;;12.63;42.21
42385;BME280;28042;43.986;22.860;2023-02-18T07:48:22;101736.19;;;12.71;42.13
42385;BME280;28042;43.986;22.860;2023-02-18T07:50:47;101731.56;;;12.72;42.25
42385;BME280;28042;43.986;22.860;2023-02-18T07:53:13;101731.75;;;12.85;42.28
42385;BME280;28042;43.986;22.860;2023-02-18T07:55:39;101740.06;;;12.92;42.10
42385;BME280;28042;43.986;22.860;2023-02-18T07:58:20;101739.63;;;13.03;41.71
42385;BME280;28042;43.986;22.860;2023-02-18T08:00:46;101747.16;;;13.01;41.72
42385;BME280;28042;43.986;22.860;2023-02-18T08:03:13;101743.69;;;13.07;41.29
42385;BME280;28042;43.986;22.860;2023-02-18T08:05:39;101755.28;;;13.09;41.24
42385;BME280;28042;43.986;22.860;2023-02-18T08:08:04;101749.81;;;13.09;41.33
42385;BME280;28042;43.986;22.860;2023-02-18T08:10:30;101749.53;;;13.19;41.50
42385;BME280;28042;43.986;22.860;2023-02-18T08:12:55;101745.28;;;13.16;41.14
42385;BME280;28042;43.986;22.860;2023-02-18T08:15:21;101763.41;;;13.17;40.95
42385;BME280;28042;43.986;22.860;2023-02-18T08:17:46;101763.41;;;13.17;41.48
42385;BME280;28042;43.986;22.860;2023-02-18T08:20:11;101759.19;;;13.15;41.42
42385;BME280;28042;43.986;22.860;2023-02-18T08:22:37;101766.16;;;13.17;40.61
42385;BME280;28042;43.986;22.860;2023-02-18T08:25:02;101768.84;;;13.25;41.12
42385;BME280;28042;43.986;22.860;2023-02-18T08:27:27;101758.53;;;13.27;41.18
42385;BME280;28042;43.986;22.860;2023-02-18T08:29:53;101763.25;;;13.34;40.80
42385;BME280;28042;43.986;22.860;2023-02-18T08:32:19;101744.72;;;13.36;40.96
42385;BME280;28042;43.986;22.860;2023-02-18T08:34:45;101756.63;;;13.43;40.75
42385;BME280;28042;43.986;22.860;2023-02-18T08:37:10;101749.06;;;13.45;40.92
42385;BME280;28042;43.986;22.860;2023-02-18T08:39:36;101759.38;;;13.57;40.92
42385;BME280;28042;43.986;22.860;2023-02-18T08:42:01;101742.06;;;13.57;40.65
42385;BME280;28042;43.986;22.860;2023-02-18T08:44:27;101750.94;;;13.59;40.39
42385;BME280;28042;43.986;22.860;2023-02-18T08:46:52;101748.50;;;13.64;40.84
42385;BME280;28042;43.986;22.860;2023-02-18T08:49:18;101739.28;;;13.72;40.41
42385;BME280;28042;43.986;22.860;2023-02-18T08:51:48;101747.38;;;13.80;40.49
42385;BME280;28042;43.986;22.860;2023-02-18T08:54:13;101758.97;;;13.97;40.13
42385;BME280;28042;43.986;22.860;2023-02-18T08:56:39;101741.34;;;14.06;39.73
42385;BME280;28042;43.986;22.860;2023-02-18T08:59:04;101750.28;;;14.14;39.67
42385;BME280;28042;43.986;22.860;2023-02-18T09:01:30;101744.34;;;14.32;39.65
42385;BME280;28042;43.986;22.860;2023-02-18T09:03:55;101741.78;;;14.46;39.87
42385;BME280;28042;43.986;22.860;2023-02-18T09:06:21;101749.69;;;14.40;38.99
42385;BME280;28042;43.986;22.860;2023-02-18T09:08:46;101746.72;;;14.35;39.66
42385;BME280;28042;43.986;22.860;2023-02-18T09:11:11;101743.91;;;14.29;38.85
42385;BME280;28042;43.986;22.860;2023-02-18T09:13:37;101749.31;;;14.22;38.90
42385;BME280;28042;43.986;22.860;2023-02-18T09:16:04;101747.38;;;14.16;38.53
42385;BME280;28042;43.986;22.860;2023-02-18T09:18:30;101758.88;;;14.26;38.81
42385;BME280;28042;43.986;22.860;2023-02-18T09:20:56;101758.41;;;14.23;38.84
42385;BME280;28042;43.986;22.860;2023-02-18T09:23:22;101753.88;;;14.15;38.75
42385;BME280;28042;43.986;22.860;2023-02-18T09:25:47;101762.28;;;14.28;38.48
42385;BME280;28042;43.986;22.860;2023-02-18T09:28:13;101767.34;;;14.31;38.88
42385;BME280;28042;43.986;22.860;2023-02-18T09:30:38;101764.88;;;14.36;38.71
42385;BME280;28042;43.986;22.860;2023-02-18T09:33:04;101757.28;;;14.38;38.07
42385;BME280;28042;43.986;22.860;2023-02-18T09:35:29;101763.06;;;14.43;38.73
42385;BME280;28042;43.986;22.860;2023-02-18T09:37:54;101767.13;;;14.48;38.53
42385;BME280;28042;43.986;22.860;2023-02-18T09:40:24;101765.28;;;14.55;38.42
42385;BME280;28042;43.986;22.860;2023-02-18T09:42:50;101760.44;;;14.57;38.67
42385;BME280;28042;43.986;22.860;2023-02-18T09:45:15;101768.31;;;14.60;38.75
42385;BME280;28042;43.986;22.860;2023-02-18T09:47:41;101765.16;;;14.63;38.53
42385;BME280;28042;43.986;22.860;2023-02-18T09:50:12;101779.47;;;14.58;38.85
42385;BME280;28042;43.986;22.860;2023-02-18T09:52:38;101770.72;;;14.69;38.55
42385;BME280;28042;43.986;22.860;2023-02-18T09:55:18;101769.03;;;14.75;38.82
42385;BME280;28042;43.986;22.860;2023-02-18T09:57:46;101754.94;;;14.85;38.74
42385;BME280;28042;43.986;22.860;2023-02-18T10:00:14;101752.09;;;14.99;38.60
42385;BME280;28042;43.986;22.860;2023-02-18T10:02:53;101730.81;;;15.08;37.92
42385;BME280;28042;43.986;22.860;2023-02-18T10:05:19;101730.69;;;15.23;37.57
42385;BME280;28042;43.986;22.860;2023-02-18T10:07:45;101720.81;;;15.35;37.44
42385;BME280;28042;43.986;22.860;2023-02-18T10:12:50;101716.75;;;15.66;36.75
42385;BME280;28042;43.986;22.860;2023-02-18T10:15:19;101717.63;;;15.73;36.78
42385;BME280;28042;43.986;22.860;2023-02-18T10:17:45;101730.13;;;15.89;36.49
42385;BME280;28042;43.986;22.860;2023-02-18T10:20:14;101739.25;;;15.96;36.62
42385;BME280;28042;43.986;22.860;2023-02-18T10:22:40;101724.44;;;16.03;36.38
42385;BME280;28042;43.986;22.860;2023-02-18T10:25:06;101712.56;;;15.96;35.91
42385;BME280;28042;43.986;22.860;2023-02-18T10:27:36;101728.94;;;16.18;35.83
42385;BME280;28042;43.986;22.860;2023-02-18T10:32:47;101707.53;;;16.20;34.95
42385;BME280;28042;43.986;22.860;2023-02-18T10:35:22;101703.50;;;16.22;34.94
42385;BME280;28042;43.986;22.860;2023-02-18T10:50:28;101688.91;;;16.22;34.85
42385;BME280;28042;43.986;22.860;2023-02-18T10:52:55;101686.78;;;16.30;34.83
42385;BME280;28042;43.986;22.860;2023-02-18T10:55:33;101671.34;;;16.36;34.91
42385;BME280;28042;43.986;22.860;2023-02-18T10:57:58;101671.97;;;16.38;35.06
42385;BME280;28042;43.986;22.860;2023-02-18T11:00:24;101675.78;;;16.37;34.68
42385;BME280;28042;43.986;22.860;2023-02-18T11:03:09;101669.44;;;16.43;34.75
42385;BME280;28042;43.986;22.860;2023-02-18T11:05:37;101691.88;;;16.40;34.88
42385;BME280;28042;43.986;22.860;2023-02-18T11:08:03;101680.44;;;16.43;34.97
42385;BME280;28042;43.986;22.860;2023-02-18T11:10:32;101680.44;;;16.36;35.51
42385;BME280;28042;43.986;22.860;2023-02-18T11:13:00;101675.78;;;16.44;35.03
42385;BME280;28042;43.986;22.860;2023-02-18T11:15:27;101675.75;;;16.50;34.72
42385;BME280;28042;43.986;22.860;2023-02-18T11:17:57;101676.59;;;16.57;34.75
42385;BME280;28042;43.986;22.860;2023-02-18T11:20:36;101663.22;;;16.67;34.98
42385;BME280;28042;43.986;22.860;2023-02-18T11:25:30;101653.94;;;16.62;34.68
42385;BME280;28042;43.986;22.860;2023-02-18T11:30:46;101662.19;;;16.62;35.01
42385;BME280;28042;43.986;22.860;2023-02-18T11:35:47;101648.44;;;16.55;35.44
42385;BME280;28042;43.986;22.860;2023-02-18T11:43:33;101640.59;;;16.46;36.43
42385;BME280;28042;43.986;22.860;2023-02-18T11:46:15;101636.78;;;16.40;36.29
42385;BME280;28042;43.986;22.860;2023-02-18T11:48:41;101635.09;;;16.32;36.43
42385;BME280;28042;43.986;22.860;2023-02-18T11:56:17;101637.66;;;16.34;36.74
42385;BME280;28042;43.986;22.860;2023-02-18T11:58:45;101633.84;;;16.28;36.58
42385;BME280;28042;43.986;22.860;2023-02-18T12:03:51;101628.94;;;16.24;36.91
42385;BME280;28042;43.986;22.860;2023-02-18T12:06:22;101633.84;;;16.22;36.85
42385;BME280;28042;43.986;22.860;2023-02-18T12:08:53;101637.88;;;16.19;36.87
42385;BME280;28042;43.986;22.860;2023-02-18T12:11:27;101627.06;;;16.18;36.91
42385;BME280;28042;43.986;22.860;2023-02-18T12:13:56;101633.84;;;16.22;36.91
42385;BME280;28042;43.986;22.860;2023-02-18T12:16:32;101633.22;;;16.20;37.05
42385;BME280;28042;43.986;22.860;2023-02-18T12:21:44;101617.31;;;16.22;37.27
42385;BME280;28042;43.986;22.860;2023-02-18T12:24:20;101617.31;;;16.22;37.29
42385;BME280;28042;43.986;22.860;2023-02-18T13:13:18;101602.47;;;15.90;38.56
42385;BME280;28042;43.986;22.860;2023-02-18T13:18:29;101598.69;;;16.10;37.94
42385;BME280;28042;43.986;22.860;2023-02-18T13:21:17;101597.81;;;16.36;37.82
42385;BME280;28042;43.986;22.860;2023-02-18T13:23:47;101602.44;;;16.62;36.97
42385;BME280;28042;43.986;22.860;2023-02-18T13:26:13;101589.25;;;16.84;36.69
42385;BME280;28042;43.986;22.860;2023-02-18T13:41:15;101570.34;;;17.39;35.91
42385;BME280;28042;43.986;22.860;2023-02-18T13:43:41;101564.75;;;17.46;35.61
42385;BME280;28042;43.986;22.860;2023-02-18T13:48:42;101567.25;;;17.54;35.93
42385;BME280;28042;43.986;22.860;2023-02-18T13:51:12;101557.00;;;17.61;36.59
42385;BME280;28042;43.986;22.860;2023-02-18T13:53:39;101566.41;;;17.53;36.55
42385;BME280;28042;43.986;22.860;2023-02-18T13:58:44;101562.72;;;17.35;37.89
42385;BME280;28042;43.986;22.860;2023-02-18T14:01:14;101566.94;;;17.37;38.00
42385;BME280;28042;43.986;22.860;2023-02-18T14:08:46;101567.41;;;17.28;38.73
42385;BME280;28042;43.986;22.860;2023-02-18T14:16:03;101554.75;;;17.51;38.48
42385;BME280;28042;43.986;22.860;2023-02-18T14:26:21;101540.16;;;17.44;39.56
42385;BME280;28042;43.986;22.860;2023-02-18T14:39:00;101549.28;;;17.13;40.92
42385;BME280;28042;43.986;22.860;2023-02-18T14:51:51;101523.16;;;16.78;42.14
42385;BME280;28042;43.986;22.860;2023-02-18T14:54:19;101532.91;;;16.74;42.57
42385;BME280;28042;43.986;22.860;2023-02-18T14:59:15;101522.31;;;16.64;43.01
42385;BME280;28042;43.986;22.860;2023-02-18T15:01:45;101531.25;;;16.59;43.16
42385;BME280;28042;43.986;22.860;2023-02-18T15:04:10;101526.16;;;16.50;43.57
42385;BME280;28042;43.986;22.860;2023-02-18T15:06:38;101526.00;;;16.38;43.74
42385;BME280;28042;43.986;22.860;2023-02-18T15:09:21;101509.72;;;16.30;43.87
42385;BME280;28042;43.986;22.860;2023-02-18T15:12:05;101527.75;;;16.26;43.92
42385;BME280;28042;43.986;22.860;2023-02-18T15:14:37;101518.66;;;16.19;44.10
42385;BME280;28042;43.986;22.860;2023-02-18T15:17:03;101515.69;;;16.14;44.19
42385;BME280;28042;43.986;22.860;2023-02-18T15:19:38;101523.31;;;16.05;44.65
42385;BME280;28042;43.986;22.860;2023-02-18T15:22:04;101507.91;;;15.91;45.03
42385;BME280;28042;43.986;22.860;2023-02-18T15:24:33;101514.03;;;15.73;45.45
42385;BME280;28042;43.986;22.860;2023-02-18T15:27:13;101506.81;;;15.72;45.62
42385;BME280;28042;43.986;22.860;2023-02-18T15:29:40;101507.66;;;15.59;45.87
42385;BME280;28042;43.986;22.860;2023-02-18T15:32:15;101506.19;;;15.57;45.87
42385;BME280;28042;43.986;22.860;2023-02-18T15:34:42;101487.75;;;15.37;46.59
42385;BME280;28042;43.986;22.860;2023-02-18T15:37:09;101488.16;;;15.27;47.01
42385;BME280;28042;43.986;22.860;2023-02-18T15:39:35;101489.00;;;15.15;47.31
42385;BME280;28042;43.986;22.860;2023-02-18T15:44:47;101491.91;;;15.00;47.83
42385;BME280;28042;43.986;22.860;2023-02-18T15:47:14;101497.81;;;14.90;48.11
42385;BME280;28042;43.986;22.860;2023-02-18T15:49:43;101492.91;;;14.79;48.51
42385;BME280;28042;43.986;22.860;2023-02-18T15:52:10;101500.47;;;14.64;49.44
42385;BME280;28042;43.986;22.860;2023-02-18T15:54:36;101497.66;;;14.51;49.98